Date,TemperatureHighF,TemperatureAvgF,TemperatureLowF,DewpointHighF,DewpointAvgF,DewpointLowF,HumidityHigh,HumidityAvg,HumidityLow,PressureMaxIn,PressureMinIn,WindSpeedMaxMPH,WindSpeedAvgMPH,GustSpeedMaxMPH,PrecipitationSumIn
2013-7-1,94,83,69,53,42,34,40,25,12,0.00,40.00,17,5,32,0.00
2013-7-2,96,82,72,49,44,39,38,28,14,0.00,40.00,13,5,28,0.00
2013-7-3,92,79,63,54,46,40,62,34,17,0.00,40.00,9,-74,20,0.00
2013-7-4,91,81,68,52,48,44,49,33,22,0.00,40.00,13,-59,23,0.00
2013-7-5,89,82,74,52,38,22,44,24,10,0.00,40.00,11,-40,21,0.00
2013-7-6,87,78,64,35,30,19,26,18,12,0.00,40.00,10,-43,20,0.00
2013-7-7,87,79,67,41,32,25,31,19,10,0.00,40.00,12,-102,31,0.00
2013-7-8,87,76,67,35,26,-100,24,17,10,0.00,40.00,10,-38,23,0.00
2013-7-9,84,76,64,37,30,21,25,18,13,0.00,40.00,16,-44,34,0.00
2013-7-10,84,78,65,34,32,30,32,19,14,0.00,40.00,9,-44,27,0.00
2013-7-15,86,76,64,43,39,34,36,27,17,0.00,40.00,11,-39,24,0.00
2013-7-16,84,75,66,39,34,27,33,24,14,0.00,40.00,12,-27,28,0.00
2013-7-17,86,78,65,38,30,24,25,18,11,0.00,40.00,12,-44,26,0.00
2013-7-18,93,85,72,41,35,24,31,18,9,0.00,40.00,9,-30,22,0.00
2013-7-19,97,85,66,46,37,27,34,19,9,0.00,40.00,14,-9,25,0.00
2013-7-20,99,87,73,47,34,-100,29,17,8,0.00,40.00,16,-12,26,0.00
2013-7-21,97,87,68,49,40,32,37,21,11,0.00,40.00,11,-17,29,0.00
2013-7-22,92,83,71,46,43,37,34,24,18,0.00,40.00,12,8,28,0.00
2013-7-23,83,75,68,50,45,40,50,35,22,0.00,40.00,10,-42,18,0.00
2013-7-24,84,74,62,49,46,44,58,39,25,0.00,40.00,12,-69,28,0.00
2013-7-25,89,77,66,55,48,44,66,38,21,0.00,40.00,19,-12,39,0.00
2013-7-26,87,73,60,56,50,44,77,49,26,0.00,40.00,11,-14,26,0.00
2013-7-27,87,80,70,47,41,34,42,27,15,0.00,40.00,11,-61,25,0.00
2013-7-28,85,77,69,46,38,33,40,26,16,0.00,40.00,9,5,23,0.00
2013-7-29,84,76,62,41,33,27,37,22,12,0.00,40.00,9,-16,23,0.00
2013-7-30,84,76,62,41,36,30,40,24,15,0.00,40.00,14,8,28,0.00
2013-7-31,84,74,68,41,35,28,33,25,13,0.00,40.00,12,-28,26,0.00